Time;durP1;ratioP1;P1;durP2;ratioP2;P2;SDS_P1;SDS_P2;PMS_P1;PMS_P2;Temp;Humidity;BMP_temperature;BMP_pressure;BME280_temperature;BME280_humidity;BME280_pressure;Samples;Min_cycle;Max_cycle;Signal;HPM_P1;HPM_P2
2023/12/25 00:00:59;;;;;;;0.90;0.80;;;10.70;99.90;;;;;;2078785;28;20049;-75
2023/12/25 00:01:59;;;;;;;0.90;0.70;;;10.80;99.90;;;;;;2079595;28;20109;-75
2023/12/25 00:03:00;;;;;;;0.90;0.70;;;10.80;99.90;;;;;;2077028;28;20033;-74
2023/12/25 00:04:00;;;;;;;0.82;0.70;;;10.80;99.90;;;;;;2078275;28;20038;-76
2023/12/25 00:05:01;;;;;;;1.35;0.73;;;10.80;99.90;;;;;;2084819;28;20461;-75
2023/12/25 00:06:01;;;;;;;1.00;0.70;;;10.80;99.90;;;;;;2087028;28;20036;-75
2023/12/25 00:07:02;;;;;;;0.65;0.65;;;10.80;99.90;;;;;;2077299;28;20124;-75
2023/12/25 00:08:03;;;;;;;0.73;0.73;;;10.80;99.90;;;;;;2085524;28;20306;-76
2023/12/25 00:09:04;;;;;;;1.42;0.80;;;10.80;99.90;;;;;;2087291;28;20514;-75
2023/12/25 00:10:04;;;;;;;0.70;0.70;;;10.80;99.90;;;;;;2077533;28;20034;-75
2023/12/25 00:11:05;;;;;;;1.40;0.80;;;10.80;99.90;;;;;;2077732;28;20278;-75
2023/12/25 00:12:06;;;;;;;1.42;0.80;;;10.70;99.90;;;;;;2087012;28;20056;-74
2023/12/25 00:13:07;;;;;;;0.77;0.77;;;10.80;99.90;;;;;;2085345;28;20506;-74
2023/12/25 00:14:07;;;;;;;1.73;0.70;;;10.80;99.90;;;;;;2076974;28;21296;-76
2023/12/25 00:15:09;;;;;;;0.95;0.88;;;10.80;99.90;;;;;;2075830;28;20505;-75
2023/12/25 00:16:09;;;;;;;0.70;0.70;;;10.70;99.90;;;;;;2076175;28;20025;-74
2023/12/25 00:17:10;;;;;;;0.80;0.80;;;10.70;99.90;;;;;;2084817;28;20056;-74
2023/12/25 00:18:10;;;;;;;0.80;0.70;;;10.70;99.90;;;;;;2087284;28;20044;-74
2023/12/25 00:19:11;;;;;;;0.75;0.63;;;10.70;99.90;;;;;;2076936;28;20471;-75
2023/12/25 00:20:12;;;;;;;1.05;0.80;;;10.80;99.90;;;;;;2079564;28;20083;-76
2023/12/25 00:21:12;;;;;;;1.25;0.77;;;10.80;99.90;;;;;;2077755;28;20021;-75
2023/12/25 00:22:13;;;;;;;0.90;0.88;;;10.80;99.90;;;;;;2075797;28;20591;-76
2023/12/25 00:23:13;;;;;;;0.93;0.70;;;10.80;99.90;;;;;;2079581;28;20270;-76
2023/12/25 00:24:14;;;;;;;0.80;0.80;;;10.80;99.90;;;;;;2085961;28;20039;-74
2023/12/25 00:25:15;;;;;;;1.60;1.00;;;10.80;99.90;;;;;;2075740;28;20052;-75
2023/12/25 00:26:15;;;;;;;0.70;0.70;;;10.90;99.90;;;;;;2078541;28;20147;-74
2023/12/25 00:27:16;;;;;;;1.63;0.80;;;10.90;99.90;;;;;;2078280;28;20043;-76
2023/12/25 00:28:17;;;;;;;1.60;0.80;;;10.90;99.90;;;;;;2075239;28;20076;-74
2023/12/25 00:29:17;;;;;;;1.50;0.73;;;10.90;99.90;;;;;;2078869;28;20041;-74
2023/12/25 00:30:18;;;;;;;0.70;0.70;;;10.90;99.90;;;;;;2070266;28;20128;-73
2023/12/25 00:31:18;;;;;;;0.70;0.70;;;10.90;99.90;;;;;;2076086;28;20059;-74
2023/12/25 00:32:20;;;;;;;1.15;0.80;;;10.90;99.90;;;;;;2083038;28;20053;-76
2023/12/25 00:33:21;;;;;;;1.35;0.80;;;11.00;99.90;;;;;;2078754;28;20461;-76
2023/12/25 00:34:21;;;;;;;1.10;0.70;;;11.00;99.90;;;;;;2070696;28;20346;-76
2023/12/25 00:35:22;;;;;;;0.70;0.70;;;11.00;99.90;;;;;;2075019;28;20499;-75
2023/12/25 00:36:22;;;;;;;1.25;0.80;;;11.00;99.90;;;;;;2078892;28;20029;-76
2023/12/25 00:37:23;;;;;;;1.02;0.70;;;11.00;99.90;;;;;;2078705;28;20045;-75
2023/12/25 00:38:23;;;;;;;0.75;0.75;;;11.00;99.90;;;;;;2074948;28;20049;-75
2023/12/25 00:39:24;;;;;;;1.20;0.73;;;11.00;99.90;;;;;;2070711;28;20026;-76
2023/12/25 00:40:24;;;;;;;0.68;0.68;;;10.90;99.90;;;;;;2070320;28;20029;-76
2023/12/25 00:41:30;;;;;;;0.98;0.88;;;11.00;99.90;;;;;;2066500;28;20254;-75
2023/12/25 00:42:31;;;;;;;0.90;0.80;;;11.00;99.90;;;;;;2069605;28;20095;-76
2023/12/25 00:43:31;;;;;;;0.70;0.70;;;11.00;99.90;;;;;;2077738;28;20279;-75
2023/12/25 00:44:32;;;;;;;1.33;1.00;;;11.00;99.90;;;;;;2067877;28;20092;-76
2023/12/25 00:45:33;;;;;;;0.70;0.70;;;11.00;99.90;;;;;;2069336;28;20528;-75
2023/12/25 00:46:33;;;;;;;2.22;1.00;;;11.00;99.90;;;;;;2087306;28;20046;-76
2023/12/25 00:47:34;;;;;;;0.88;0.80;;;11.00;99.90;;;;;;2084649;28;20033;-74
2023/12/25 00:48:36;;;;;;;0.80;0.80;;;11.00;99.90;;;;;;2077811;28;20112;-73
2023/12/25 00:49:36;;;;;;;1.75;0.90;;;11.00;99.90;;;;;;2078512;28;20392;-75
2023/12/25 00:50:37;;;;;;;1.13;0.75;;;10.90;99.90;;;;;;2076644;28;20033;-75
2023/12/25 00:51:37;;;;;;;0.77;0.77;;;11.00;99.90;;;;;;2084755;28;20759;-74
2023/12/25 00:52:38;;;;;;;1.25;0.88;;;11.00;99.90;;;;;;2078657;28;20037;-74
2023/12/25 00:53:40;;;;;;;1.20;0.98;;;11.00;99.90;;;;;;2076861;28;20087;-74
2023/12/25 00:54:40;;;;;;;1.23;0.90;;;11.00;99.90;;;;;;2076109;28;20033;-75
2023/12/25 00:55:41;;;;;;;1.52;0.90;;;11.00;99.90;;;;;;2070410;28;20729;-75
2023/12/25 00:56:41;;;;;;;1.02;1.00;;;11.00;99.90;;;;;;2068991;28;20034;-74
2023/12/25 00:57:42;;;;;;;0.80;0.80;;;11.00;99.90;;;;;;2059747;28;20035;-75
2023/12/25 00:58:44;;;;;;;2.50;0.80;;;10.90;99.90;;;;;;2067067;28;20033;-75
2023/12/25 00:59:44;;;;;;;0.95;0.90;;;10.90;99.90;;;;;;2078838;28;20087;-75
2023/12/25 01:00:45;;;;;;;0.85;0.85;;;11.00;99.90;;;;;;2077452;28;20158;-75
2023/12/25 01:01:45;;;;;;;4.00;1.10;;;11.00;99.90;;;;;;2075538;28;20462;-75
2023/12/25 01:02:47;;;;;;;0.82;0.80;;;11.00;99.90;;;;;;2066247;28;20060;-74
2023/12/25 01:03:47;;;;;;;1.42;0.93;;;11.00;99.90;;;;;;2069664;28;20049;-75
2023/12/25 01:04:48;;;;;;;0.98;0.98;;;11.00;99.90;;;;;;2075318;28;20013;-75
2023/12/25 01:05:48;;;;;;;1.70;0.80;;;11.00;99.90;;;;;;2079070;28;20033;-75
2023/12/25 01:06:49;;;;;;;1.52;0.95;;;11.00;99.90;;;;;;2078550;28;20033;-75
2023/12/25 01:07:49;;;;;;;0.88;0.85;;;11.00;99.90;;;;;;2083116;28;20036;-75
2023/12/25 01:08:50;;;;;;;1.30;0.90;;;11.00;99.90;;;;;;2082566;28;20082;-74
2023/12/25 01:09:50;;;;;;;0.88;0.88;;;11.00;99.90;;;;;;2078471;28;20032;-75
2023/12/25 01:10:51;;;;;;;1.92;0.90;;;11.00;99.90;;;;;;2075302;28;20056;-75
2023/12/25 01:11:52;;;;;;;2.47;1.08;;;11.00;99.90;;;;;;2078551;28;20029;-74
2023/12/25 01:12:53;;;;;;;1.20;0.93;;;11.00;99.90;;;;;;2078879;28;20464;-74
2023/12/25 01:13:53;;;;;;;1.60;0.90;;;10.90;99.90;;;;;;2083393;28;20036;-74
2023/12/25 01:14:54;;;;;;;1.90;1.05;;;10.90;99.90;;;;;;2070796;28;20283;-75
2023/12/25 01:15:54;;;;;;;1.08;0.98;;;10.90;99.90;;;;;;2063012;28;20177;-74
2023/12/25 01:16:55;;;;;;;1.35;1.00;;;10.90;99.90;;;;;;2078696;28;20029;-74
2023/12/25 01:17:56;;;;;;;1.02;1.00;;;10.90;99.90;;;;;;2074800;28;20026;-75
2023/12/25 01:18:56;;;;;;;1.02;0.93;;;10.90;99.90;;;;;;2087108;28;20047;-74
2023/12/25 01:19:57;;;;;;;1.98;1.05;;;10.90;99.90;;;;;;2070571;28;20499;-74
2023/12/25 01:20:57;;;;;;;1.92;1.10;;;10.80;99.90;;;;;;2066912;28;20032;-74
2023/12/25 01:21:58;;;;;;;2.08;0.98;;;10.90;99.90;;;;;;2086545;28;20043;-75
2023/12/25 01:22:58;;;;;;;1.65;1.17;;;10.90;99.90;;;;;;2086873;28;20145;-74
2023/12/25 01:23:59;;;;;;;1.77;0.90;;;10.90;99.90;;;;;;2075670;28;20067;-74
2023/12/25 01:24:59;;;;;;;1.33;1.02;;;10.90;99.90;;;;;;2074610;28;20025;-74
2023/12/25 01:26:00;;;;;;;1.33;1.08;;;10.90;99.90;;;;;;2070131;28;20029;-74
2023/12/25 01:27:00;;;;;;;1.45;0.90;;;10.90;99.90;;;;;;2075123;28;20053;-74
2023/12/25 01:28:01;;;;;;;1.20;1.05;;;11.00;99.90;;;;;;2078576;28;20018;-74
2023/12/25 01:29:01;;;;;;;1.05;0.95;;;11.00;99.90;;;;;;2083907;28;20025;-75
2023/12/25 01:30:02;;;;;;;1.17;0.90;;;11.10;99.90;;;;;;2085990;28;20546;-74
2023/12/25 01:31:05;;;;;;;2.50;1.17;;;11.10;99.90;;;;;;2071880;28;20144;-73
2023/12/25 01:32:06;;;;;;;1.10;0.90;;;11.10;99.90;;;;;;2078463;28;20186;-74
2023/12/25 01:33:06;;;;;;;1.27;0.95;;;11.10;99.90;;;;;;2085398;28;20203;-75
2023/12/25 01:34:07;;;;;;;1.17;1.08;;;11.10;99.90;;;;;;2086699;28;20024;-74
2023/12/25 01:35:08;;;;;;;1.30;1.10;;;11.10;99.90;;;;;;2066247;28;20504;-74
2023/12/25 01:36:09;;;;;;;1.27;1.00;;;11.10;99.90;;;;;;2059781;28;20034;-74
2023/12/25 01:37:09;;;;;;;1.77;1.05;;;11.20;99.90;;;;;;2077230;28;20014;-74
2023/12/25 01:38:11;;;;;;;2.28;1.00;;;11.20;99.90;;;;;;2079207;28;20120;-74
2023/12/25 01:39:12;;;;;;;1.40;1.00;;;11.10;99.90;;;;;;2084343;28;20529;-75
2023/12/25 01:40:14;;;;;;;1.30;1.10;;;11.20;99.90;;;;;;2076766;28;20029;-74
2023/12/25 01:41:14;;;;;;;1.40;1.02;;;11.20;99.90;;;;;;2078768;28;20037;-74
2023/12/25 01:42:15;;;;;;;2.03;1.10;;;11.20;99.90;;;;;;2078244;28;20511;-74
2023/12/25 01:43:15;;;;;;;1.00;0.90;;;11.20;99.90;;;;;;2076688;28;20635;-74
2023/12/25 01:44:16;;;;;;;1.70;1.08;;;11.20;99.90;;;;;;2078650;28;20037;-74
2023/12/25 01:45:16;;;;;;;1.00;1.00;;;11.20;99.90;;;;;;2077420;28;20378;-74
2023/12/25 01:46:18;;;;;;;1.17;1.08;;;11.20;99.90;;;;;;2076454;28;20029;-74
2023/12/25 01:47:20;;;;;;;0.90;0.80;;;11.20;99.90;;;;;;2074843;28;20157;-74
2023/12/25 01:48:23;;;;;;;1.30;1.02;;;11.10;99.90;;;;;;2078419;28;20025;-74
2023/12/25 01:49:24;;;;;;;1.42;0.90;;;11.10;99.90;;;;;;2083597;28;20056;-74
2023/12/25 01:50:25;;;;;;;2.38;0.98;;;11.10;99.90;;;;;;2078785;28;20135;-74
2023/12/25 01:51:25;;;;;;;1.73;0.95;;;11.10;99.90;;;;;;2077801;28;20087;-74
2023/12/25 01:52:27;;;;;;;2.03;1.10;;;11.10;99.90;;;;;;2075545;28;20057;-74
2023/12/25 01:53:27;;;;;;;2.03;1.10;;;11.10;99.90;;;;;;2079110;28;20195;-73
2023/12/25 01:54:28;;;;;;;1.30;1.00;;;11.00;99.90;;;;;;2086557;28;20083;-74
2023/12/25 01:55:29;;;;;;;1.77;1.15;;;11.00;99.90;;;;;;2074513;28;20380;-74
2023/12/25 01:56:31;;;;;;;1.48;1.10;;;11.10;99.90;;;;;;2074239;28;20021;-74
2023/12/25 01:57:33;;;;;;;1.60;1.00;;;11.10;99.90;;;;;;2078813;28;20043;-73
2023/12/25 01:58:33;;;;;;;3.53;1.10;;;11.10;99.90;;;;;;2074269;28;20018;-74
2023/12/25 01:59:34;;;;;;;2.13;1.10;;;11.10;99.90;;;;;;2085945;28;20025;-74
2023/12/25 02:00:35;;;;;;;5.25;1.20;;;11.10;99.90;;;;;;2078153;28;20044;-75
2023/12/25 02:01:36;;;;;;;2.22;1.00;;;11.10;99.90;;;;;;2075050;28;20021;-75
2023/12/25 02:02:36;;;;;;;1.08;1.00;;;11.10;99.90;;;;;;2085545;28;20395;-76
2023/12/25 02:03:39;;;;;;;1.67;1.00;;;11.00;99.90;;;;;;2078482;28;20035;-73
2023/12/25 02:04:41;;;;;;;2.28;1.05;;;11.10;99.90;;;;;;2075772;28;20112;-74
2023/12/25 02:05:42;;;;;;;1.52;1.00;;;11.10;99.90;;;;;;2085248;28;20059;-74
2023/12/25 02:06:46;;;;;;;1.08;1.00;;;11.10;99.90;;;;;;2076554;28;20029;-74
2023/12/25 02:07:47;;;;;;;1.00;0.90;;;11.10;99.90;;;;;;2076345;28;20392;-74
2023/12/25 02:08:47;;;;;;;1.30;0.90;;;11.00;99.90;;;;;;2076646;28;20044;-75
2023/12/25 02:09:49;;;;;;;1.20;1.10;;;11.10;99.90;;;;;;2078789;28;20554;-75
2023/12/25 02:10:50;;;;;;;1.20;0.90;;;11.00;99.90;;;;;;2076676;28;20802;-75
2023/12/25 02:11:53;;;;;;;1.10;1.00;;;11.00;99.90;;;;;;2075186;28;20041;-75
2023/12/25 02:12:54;;;;;;;0.82;0.82;;;11.00;99.90;;;;;;2074109;28;20052;-74
2023/12/25 02:13:57;;;;;;;1.10;1.10;;;11.00;99.90;;;;;;2073998;28;20033;-74
2023/12/25 02:14:57;;;;;;;1.10;1.00;;;10.90;99.90;;;;;;2069934;28;20026;-74
2023/12/25 02:15:58;;;;;;;1.58;0.93;;;10.90;99.90;;;;;;2078704;28;20045;-74
2023/12/25 02:17:00;;;;;;;1.08;0.90;;;10.90;99.90;;;;;;2084956;28;20025;-76
2023/12/25 02:18:02;;;;;;;1.38;0.98;;;10.80;99.90;;;;;;2081260;28;20395;-75
2023/12/25 02:19:07;;;;;;;5.57;0.90;;;10.90;99.90;;;;;;2073014;28;20300;-76
2023/12/25 02:20:08;;;;;;;2.72;1.05;;;10.80;99.90;;;;;;2081412;28;20074;-74
2023/12/25 02:21:09;;;;;;;1.23;1.13;;;10.80;99.90;;;;;;2069428;28;20079;-75
2023/12/25 02:22:10;;;;;;;2.10;1.10;;;10.80;99.90;;;;;;2071544;28;20080;-74
2023/12/25 02:23:15;;;;;;;1.33;0.98;;;10.80;99.90;;;;;;2088991;28;20605;-75
2023/12/25 02:24:20;;;;;;;1.85;1.00;;;10.80;99.90;;;;;;2086391;28;20041;-75
2023/12/25 02:25:32;;;;;;;1.63;1.20;;;10.80;99.90;;;;;;2078846;28;20866;-73
2023/12/25 02:26:32;;;;;;;2.05;0.95;;;10.70;99.90;;;;;;2072925;28;20106;-75
2023/12/25 02:27:33;;;;;;;2.30;1.13;;;10.70;99.90;;;;;;2080980;28;20131;-75
2023/12/25 02:28:34;;;;;;;2.03;1.10;;;10.70;99.90;;;;;;2076748;28;20025;-75
2023/12/25 02:29:34;;;;;;;3.17;1.20;;;10.70;99.90;;;;;;2072371;28;20071;-74
2023/12/25 02:30:35;;;;;;;1.27;1.00;;;10.80;99.90;;;;;;2078836;28;20808;-75
2023/12/25 02:31:35;;;;;;;1.15;0.93;;;10.80;99.90;;;;;;2075370;28;20025;-73
2023/12/25 02:32:37;;;;;;;2.33;1.10;;;10.80;99.90;;;;;;2080627;28;20071;-74
2023/12/25 02:33:37;;;;;;;1.38;1.20;;;10.80;99.90;;;;;;2072884;28;20655;-73
2023/12/25 02:34:39;;;;;;;2.58;1.20;;;10.80;99.90;;;;;;2069714;28;20078;-74
2023/12/25 02:35:40;;;;;;;1.52;1.10;;;10.80;99.90;;;;;;2080249;28;20025;-75
2023/12/25 02:36:41;;;;;;;1.48;1.10;;;10.90;99.90;;;;;;2071793;28;20448;-74
2023/12/25 02:37:41;;;;;;;1.38;1.00;;;10.90;99.90;;;;;;2081149;28;20116;-73
2023/12/25 02:38:42;;;;;;;1.88;1.10;;;10.90;99.90;;;;;;2078304;28;20056;-76
2023/12/25 02:39:42;;;;;;;1.13;1.00;;;10.90;99.90;;;;;;2079519;28;20044;-74
2023/12/25 02:40:43;;;;;;;1.52;1.10;;;10.80;99.90;;;;;;2080817;28;20025;-75
2023/12/25 02:41:44;;;;;;;1.25;1.10;;;10.80;99.90;;;;;;2079502;28;20040;-76
2023/12/25 02:42:44;;;;;;;1.75;0.90;;;10.80;99.90;;;;;;2070216;28;20080;-76
2023/12/25 02:43:45;;;;;;;3.00;1.00;;;10.80;99.90;;;;;;2079099;28;20029;-73
2023/12/25 02:44:46;;;;;;;1.17;0.90;;;10.80;99.90;;;;;;2081660;28;20041;-75
2023/12/25 02:45:46;;;;;;;1.48;1.00;;;10.80;99.90;;;;;;2077437;28;20048;-75
2023/12/25 02:46:47;;;;;;;0.90;0.90;;;10.80;99.90;;;;;;2077535;28;20021;-74
2023/12/25 02:47:48;;;;;;;2.47;1.10;;;10.90;99.90;;;;;;2081063;28;20073;-73
2023/12/25 02:48:49;;;;;;;1.73;1.10;;;10.90;99.90;;;;;;2087126;28;20032;-73
2023/12/25 02:49:49;;;;;;;0.80;0.80;;;10.90;99.90;;;;;;2078346;28;20021;-73
2023/12/25 02:50:50;;;;;;;1.23;0.90;;;11.00;99.90;;;;;;2077795;28;20260;-75
2023/12/25 02:51:50;;;;;;;0.93;0.90;;;10.90;99.90;;;;;;2080710;28;20622;-74
2023/12/25 02:52:51;;;;;;;2.20;1.00;;;10.90;99.90;;;;;;2079099;28;21433;-74
2023/12/25 02:53:52;;;;;;;1.25;0.90;;;10.90;99.90;;;;;;2078085;28;20898;-74
2023/12/25 02:54:52;;;;;;;2.00;1.00;;;11.00;99.90;;;;;;2075104;28;20136;-74
2023/12/25 02:55:53;;;;;;;1.48;1.00;;;10.90;99.90;;;;;;2076497;28;20025;-74
2023/12/25 02:56:54;;;;;;;2.58;0.82;;;10.90;99.90;;;;;;2076454;28;20087;-76
2023/12/25 02:57:55;;;;;;;2.97;0.90;;;10.90;99.90;;;;;;2078541;28;20111;-74
2023/12/25 02:58:55;;;;;;;2.28;0.90;;;10.90;99.90;;;;;;2077734;28;20251;-74
2023/12/25 02:59:56;;;;;;;0.70;0.70;;;10.90;99.90;;;;;;2076885;28;20120;-74
2023/12/25 03:00:56;;;;;;;1.30;0.80;;;10.90;99.90;;;;;;2076603;28;20576;-74
2023/12/25 03:01:58;;;;;;;0.80;0.80;;;11.00;99.90;;;;;;2079878;28;20418;-74
2023/12/25 03:02:58;;;;;;;0.98;0.90;;;11.00;99.90;;;;;;2085352;28;20062;-73
2023/12/25 03:03:59;;;;;;;2.13;1.00;;;11.00;99.90;;;;;;2080728;28;20091;-74
2023/12/25 03:05:00;;;;;;;1.77;0.90;;;11.00;99.90;;;;;;2080689;28;20087;-74
2023/12/25 03:06:00;;;;;;;1.52;0.80;;;11.10;99.90;;;;;;2079948;28;20033;-74
2023/12/25 03:07:01;;;;;;;1.88;0.98;;;11.10;99.90;;;;;;2076922;28;20029;-76
2023/12/25 03:08:01;;;;;;;1.45;0.90;;;11.10;99.90;;;;;;2072450;28;20517;-73
2023/12/25 03:09:03;;;;;;;3.33;0.90;;;11.10;99.90;;;;;;2076881;28;20704;-74
2023/12/25 03:10:03;;;;;;;1.38;0.80;;;11.10;99.90;;;;;;2072600;28;20026;-74
2023/12/25 03:11:05;;;;;;;1.70;0.93;;;11.20;99.90;;;;;;2084912;28;20029;-74
2023/12/25 03:12:05;;;;;;;1.13;0.90;;;11.10;99.90;;;;;;2080413;28;20052;-73
2023/12/25 03:13:06;;;;;;;2.45;0.98;;;11.20;99.90;;;;;;2068776;28;20062;-75
2023/12/25 03:14:07;;;;;;;1.90;1.00;;;11.10;99.90;;;;;;2071942;28;20026;-75
2023/12/25 03:15:07;;;;;;;0.98;0.90;;;11.10;99.90;;;;;;2080611;28;20032;-75
2023/12/25 03:16:08;;;;;;;1.40;1.00;;;11.20;99.90;;;;;;2076833;28;20029;-75
2023/12/25 03:17:09;;;;;;;1.38;0.93;;;11.20;99.90;;;;;;2079766;28;20032;-75
2023/12/25 03:18:09;;;;;;;1.88;0.90;;;11.10;99.90;;;;;;2088901;28;20418;-75
2023/12/25 03:19:10;;;;;;;2.10;0.90;;;11.10;99.90;;;;;;2077349;28;20128;-75
2023/12/25 03:20:11;;;;;;;2.38;0.98;;;11.20;99.90;;;;;;2079621;28;20114;-75
2023/12/25 03:21:11;;;;;;;0.98;0.90;;;11.20;99.90;;;;;;2080393;28;20033;-75
2023/12/25 03:22:12;;;;;;;1.58;0.95;;;11.20;99.90;;;;;;2077446;28;20127;-75
2023/12/25 03:23:13;;;;;;;2.58;0.90;;;11.20;99.90;;;;;;2079446;28;20554;-74
2023/12/25 03:24:13;;;;;;;1.45;0.90;;;11.10;99.90;;;;;;2088760;28;20047;-74
2023/12/25 03:25:14;;;;;;;1.00;0.85;;;11.20;99.90;;;;;;2086063;28;20083;-74
2023/12/25 03:26:15;;;;;;;1.05;0.98;;;11.10;99.90;;;;;;2086347;28;20033;-74
2023/12/25 03:27:15;;;;;;;1.50;0.93;;;11.00;99.90;;;;;;2078467;28;20506;-74
2023/12/25 03:28:16;;;;;;;1.30;1.00;;;11.00;99.90;;;;;;2078490;28;20321;-75
2023/12/25 03:29:16;;;;;;;1.23;0.90;;;11.00;99.90;;;;;;2077649;28;20021;-74
2023/12/25 03:30:17;;;;;;;0.95;0.90;;;11.00;99.90;;;;;;2085905;28;20536;-75
2023/12/25 03:31:19;;;;;;;1.00;0.90;;;11.00;99.90;;;;;;2072936;28;20521;-75
2023/12/25 03:32:20;;;;;;;1.35;0.85;;;11.00;99.90;;;;;;2079123;28;20084;-75
2023/12/25 03:33:20;;;;;;;2.15;0.93;;;11.10;99.90;;;;;;2078177;28;20057;-75
2023/12/25 03:34:21;;;;;;;2.15;0.80;;;11.10;99.90;;;;;;2085157;28;20408;-75
2023/12/25 03:35:21;;;;;;;1.17;1.00;;;11.10;99.90;;;;;;2076242;28;20037;-75
2023/12/25 03:36:22;;;;;;;1.88;1.00;;;11.10;99.90;;;;;;2079103;28;20029;-76
2023/12/25 03:37:23;;;;;;;1.25;0.90;;;11.10;99.90;;;;;;2077942;28;20037;-75
2023/12/25 03:38:23;;;;;;;2.17;1.00;;;11.10;99.90;;;;;;2076633;28;20513;-74
2023/12/25 03:39:24;;;;;;;2.45;1.00;;;11.10;99.90;;;;;;2067701;28;20078;-75
2023/12/25 03:40:24;;;;;;;1.67;0.93;;;11.20;99.90;;;;;;2070927;28;20044;-76
2023/12/25 03:41:25;;;;;;;0.90;0.90;;;11.20;99.90;;;;;;2078237;28;20029;-74
2023/12/25 03:42:25;;;;;;;1.17;1.00;;;11.20;99.90;;;;;;2074843;28;20017;-74
2023/12/25 03:43:26;;;;;;;1.35;0.90;;;11.10;99.90;;;;;;2079139;28;20033;-74
2023/12/25 03:44:26;;;;;;;1.50;1.00;;;11.10;99.90;;;;;;2069562;28;20021;-74
2023/12/25 03:45:27;;;;;;;1.67;0.98;;;11.10;99.90;;;;;;2068100;28;20102;-74
2023/12/25 03:46:27;;;;;;;1.75;0.95;;;11.10;99.90;;;;;;2075529;28;20026;-74
2023/12/25 03:47:28;;;;;;;1.45;0.85;;;11.00;99.90;;;;;;2067287;28;20116;-76
2023/12/25 03:48:29;;;;;;;2.75;0.90;;;11.10;99.90;;;;;;2071093;28;20080;-74
2023/12/25 03:49:29;;;;;;;2.42;1.10;;;11.20;99.90;;;;;;2079243;28;20029;-75
2023/12/25 03:50:30;;;;;;;1.95;0.90;;;11.20;99.90;;;;;;2075696;28;20512;-75
2023/12/25 03:51:35;;;;;;;1.80;0.95;;;11.20;99.90;;;;;;2075907;28;20021;-75
2023/12/25 03:52:36;;;;;;;1.42;1.10;;;11.20;99.90;;;;;;2076109;28;20047;-75
2023/12/25 03:53:36;;;;;;;1.63;1.00;;;11.20;99.90;;;;;;2083693;28;20539;-74
2023/12/25 03:54:37;;;;;;;1.23;0.93;;;11.30;99.90;;;;;;2087156;28;20422;-74
2023/12/25 03:55:38;;;;;;;1.55;1.00;;;11.20;99.90;;;;;;2079116;28;20066;-74
2023/12/25 03:56:38;;;;;;;1.38;0.90;;;11.20;99.90;;;;;;2067743;28;20021;-75
2023/12/25 03:57:39;;;;;;;1.05;0.80;;;11.20;99.90;;;;;;2070621;28;20314;-74
2023/12/25 03:58:40;;;;;;;1.00;0.90;;;11.10;99.90;;;;;;2069512;28;20018;-74
2023/12/25 03:59:40;;;;;;;3.30;1.02;;;11.10;99.90;;;;;;2068752;28;20021;-74
2023/12/25 04:00:41;;;;;;;2.78;1.10;;;11.10;99.90;;;;;;2075763;28;20090;-75
2023/12/25 04:01:41;;;;;;;1.17;0.93;;;11.10;99.90;;;;;;2078115;28;20017;-75
2023/12/25 04:02:42;;;;;;;1.60;1.00;;;11.10;99.90;;;;;;2070786;28;20034;-73
2023/12/25 04:03:43;;;;;;;3.33;0.98;;;11.10;99.90;;;;;;2062718;28;20022;-74
2023/12/25 04:04:43;;;;;;;1.83;1.00;;;11.00;99.90;;;;;;2075955;28;20307;-74
2023/12/25 04:05:44;;;;;;;1.05;0.90;;;11.00;99.90;;;;;;2078917;28;20172;-74
2023/12/25 04:06:44;;;;;;;1.42;0.98;;;11.00;99.90;;;;;;2079669;28;20056;-74
2023/12/25 04:07:45;;;;;;;0.93;0.90;;;11.00;99.90;;;;;;2084348;28;20033;-75
2023/12/25 04:08:45;;;;;;;1.42;0.88;;;11.00;99.90;;;;;;2077616;28;20049;-75
2023/12/25 04:09:46;;;;;;;1.55;0.90;;;10.90;99.90;;;;;;2070665;28;20353;-74
2023/12/25 04:10:47;;;;;;;1.85;0.98;;;11.00;99.90;;;;;;2062595;28;20021;-75
2023/12/25 04:11:47;;;;;;;0.98;0.90;;;10.90;99.90;;;;;;2068244;28;20301;-75
2023/12/25 04:12:48;;;;;;;1.67;0.90;;;10.90;99.90;;;;;;2077279;28;20264;-74
2023/12/25 04:13:53;;;;;;;1.65;0.90;;;10.90;99.90;;;;;;2070644;28;20022;-73
2023/12/25 04:14:53;;;;;;;1.75;0.90;;;10.90;99.90;;;;;;2069702;28;20026;-74
2023/12/25 04:15:54;;;;;;;1.02;0.90;;;10.90;99.90;;;;;;2076579;28;20021;-74
2023/12/25 04:16:55;;;;;;;1.73;0.90;;;10.90;99.90;;;;;;2076086;28;20518;-74
2023/12/25 04:17:56;;;;;;;2.25;1.10;;;10.90;99.90;;;;;;2075687;28;20371;-75
2023/12/25 04:18:56;;;;;;;1.25;0.90;;;10.90;99.90;;;;;;2067433;28;20034;-74
2023/12/25 04:19:57;;;;;;;1.30;0.90;;;11.00;99.90;;;;;;2066974;28;20128;-75
2023/12/25 04:20:57;;;;;;;1.70;1.00;;;10.90;99.90;;;;;;2075383;28;20025;-74
2023/12/25 04:21:58;;;;;;;1.23;0.80;;;10.90;99.90;;;;;;2070429;28;20121;-74
2023/12/25 04:22:59;;;;;;;2.83;0.95;;;10.90;99.90;;;;;;2069344;28;20074;-75
2023/12/25 04:24:01;;;;;;;1.08;0.80;;;10.80;99.90;;;;;;2067443;28;20420;-74
2023/12/25 04:25:01;;;;;;;1.58;0.80;;;11.00;99.90;;;;;;2074735;28;20084;-75
2023/12/25 04:26:03;;;;;;;1.10;0.80;;;11.00;99.90;;;;;;2086445;28;20025;-74
2023/12/25 04:27:04;;;;;;;0.90;0.70;;;11.00;99.90;;;;;;2075281;28;20813;-74
2023/12/25 04:28:04;;;;;;;0.82;0.80;;;11.00;99.90;;;;;;2070595;28;20531;-74
2023/12/25 04:29:05;;;;;;;1.38;0.75;;;11.00;99.90;;;;;;2070191;28;20040;-74
2023/12/25 04:30:06;;;;;;;1.80;0.70;;;11.00;99.90;;;;;;2074942;28;20140;-77
2023/12/25 04:31:07;;;;;;;0.70;0.60;;;11.00;99.90;;;;;;2066091;28;20021;-77
2023/12/25 04:32:07;;;;;;;1.75;0.80;;;11.00;99.90;;;;;;2077824;28;20555;-79
2023/12/25 04:33:08;;;;;;;1.48;0.80;;;11.00;99.90;;;;;;2082952;28;20031;-77
2023/12/25 04:34:09;;;;;;;0.80;0.80;;;11.00;99.90;;;;;;2074700;28;20435;-77
2023/12/25 04:35:09;;;;;;;0.70;0.70;;;11.00;99.90;;;;;;2066540;28;20412;-78
2023/12/25 04:36:10;;;;;;;1.17;0.88;;;11.00;99.90;;;;;;2066571;28;20081;-78
2023/12/25 04:37:11;;;;;;;0.80;0.70;;;11.00;99.90;;;;;;2075205;28;20092;-78
2023/12/25 04:38:11;;;;;;;0.93;0.70;;;10.90;99.90;;;;;;2077961;28;20091;-79
2023/12/25 04:39:12;;;;;;;0.95;0.88;;;11.00;99.90;;;;;;2070175;28;20021;-78
2023/12/25 04:40:13;;;;;;;1.02;0.75;;;10.90;99.90;;;;;;2067428;28;20080;-72
2023/12/25 04:41:13;;;;;;;1.15;0.80;;;10.90;99.90;;;;;;2069718;28;20026;-72
2023/12/25 04:42:14;;;;;;;1.27;0.70;;;10.90;99.90;;;;;;2072542;28;20557;-73
2023/12/25 04:43:14;;;;;;;0.70;0.70;;;11.00;99.90;;;;;;2059196;28;20038;-72
2023/12/25 04:44:15;;;;;;;0.70;0.70;;;11.00;99.90;;;;;;2061435;28;20034;-71
2023/12/25 04:45:15;;;;;;;0.88;0.75;;;11.00;99.90;;;;;;2070577;28;20053;-72
2023/12/25 04:46:17;;;;;;;0.98;0.70;;;11.00;99.90;;;;;;2067390;28;20404;-72
2023/12/25 04:47:18;;;;;;;1.05;0.70;;;11.00;99.90;;;;;;2067796;28;20715;-71
2023/12/25 04:48:18;;;;;;;0.75;0.75;;;11.00;99.90;;;;;;2075987;28;20045;-73
2023/12/25 04:49:19;;;;;;;1.50;0.70;;;11.10;99.90;;;;;;2076069;28;20056;-74
2023/12/25 04:50:19;;;;;;;0.88;0.60;;;11.10;99.90;;;;;;2077562;28;20045;-73
2023/12/25 04:51:20;;;;;;;1.33;0.70;;;11.10;99.90;;;;;;2079052;28;20028;-73
2023/12/25 04:52:20;;;;;;;1.00;0.70;;;11.10;99.90;;;;;;2075927;28;20050;-73
2023/12/25 04:53:21;;;;;;;0.70;0.70;;;11.10;99.90;;;;;;2087163;28;20274;-73
2023/12/25 04:54:21;;;;;;;0.60;0.60;;;11.10;99.90;;;;;;2077387;28;20245;-73
2023/12/25 04:55:22;;;;;;;0.75;0.70;;;11.20;99.90;;;;;;2069753;28;20159;-73
2023/12/25 04:56:22;;;;;;;0.95;0.77;;;11.10;99.90;;;;;;2070695;28;20079;-73
2023/12/25 04:57:23;;;;;;;0.90;0.70;;;11.10;99.90;;;;;;2076772;28;20067;-73
2023/12/25 04:58:23;;;;;;;0.93;0.70;;;11.10;99.90;;;;;;2076500;28;20037;-73
2023/12/25 04:59:24;;;;;;;0.60;0.60;;;11.10;99.90;;;;;;2070478;28;20033;-73
2023/12/25 05:00:26;;;;;;;0.70;0.70;;;11.10;99.90;;;;;;2070908;28;20029;-71
2023/12/25 05:01:26;;;;;;;1.38;0.70;;;11.10;99.90;;;;;;2070570;28;20017;-71
2023/12/25 05:02:27;;;;;;;0.70;0.70;;;11.10;99.90;;;;;;2076447;28;20037;-71
2023/12/25 05:03:28;;;;;;;0.60;0.60;;;11.10;99.90;;;;;;2076847;28;20029;-72
2023/12/25 05:04:29;;;;;;;0.95;0.63;;;11.20;99.90;;;;;;2075970;28;20033;-72
2023/12/25 05:05:29;;;;;;;0.65;0.63;;;11.20;99.90;;;;;;2077432;28;20068;-72
2023/12/25 05:06:31;;;;;;;1.02;0.70;;;11.10;99.90;;;;;;2084958;28;20039;-72
2023/12/25 05:07:32;;;;;;;0.60;0.60;;;11.10;99.90;;;;;;2075864;28;20182;-72
2023/12/25 05:08:33;;;;;;;0.60;0.60;;;11.10;99.90;;;;;;2075097;28;20547;-72
2023/12/25 05:09:34;;;;;;;0.75;0.68;;;11.10;99.90;;;;;;2074937;28;20064;-72
2023/12/25 05:10:34;;;;;;;0.95;0.70;;;11.10;99.90;;;;;;2074755;28;20244;-73
2023/12/25 05:11:35;;;;;;;0.70;0.70;;;11.10;99.90;;;;;;2078282;28;20494;-73
2023/12/25 05:12:35;;;;;;;0.60;0.60;;;11.10;99.90;;;;;;2085640;28;20135;-72
2023/12/25 05:13:36;;;;;;;0.75;0.75;;;11.00;99.90;;;;;;2075427;28;20072;-73
2023/12/25 05:14:37;;;;;;;0.60;0.60;;;11.00;99.90;;;;;;2074620;28;20067;-72
2023/12/25 05:15:37;;;;;;;1.00;0.60;;;11.10;99.90;;;;;;2070214;28;20026;-72
2023/12/25 05:16:38;;;;;;;0.80;0.70;;;11.10;99.90;;;;;;2078299;28;20053;-73
2023/12/25 05:17:38;;;;;;;0.70;0.70;;;11.10;99.90;;;;;;2077398;28;20033;-73